sensor_id;sensor_type;location;lat;lon;timestamp;P1;durP1;ratioP1;P2;durP2;ratioP2
20480;SDS011;10399;50.754;3.366;2024-01-25T00:00:44;66.03;;;11.00;;
20480;SDS011;10399;50.754;3.366;2024-01-25T00:03:26;73.80;;;9.32;;
20480;SDS011;10399;50.754;3.366;2024-01-25T00:06:11;60.63;;;9.70;;
20480;SDS011;10399;50.754;3.366;2024-01-25T00:08:40;71.95;;;10.25;;
20480;SDS011;10399;50.754;3.366;2024-01-25T00:11:16;70.93;;;9.82;;
20480;SDS011;10399;50.754;3.366;2024-01-25T00:13:52;63.00;;;10.48;;
20480;SDS011;10399;50.754;3.366;2024-01-25T00:16:22;77.10;;;10.32;;
20480;SDS011;10399;50.754;3.366;2024-01-25T00:18:49;51.20;;;9.82;;
20480;SDS011;10399;50.754;3.366;2024-01-25T00:21:19;75.85;;;10.73;;
20480;SDS011;10399;50.754;3.366;2024-01-25T00:23:54;66.13;;;11.10;;
20480;SDS011;10399;50.754;3.366;2024-01-25T00:26:30;67.68;;;10.50;;
20480;SDS011;10399;50.754;3.366;2024-01-25T00:29:00;62.53;;;10.55;;
20480;SDS011;10399;50.754;3.366;2024-01-25T00:31:27;67.82;;;11.10;;
20480;SDS011;10399;50.754;3.366;2024-01-25T00:34:05;59.70;;;10.63;;
20480;SDS011;10399;50.754;3.366;2024-01-25T00:36:35;64.07;;;10.55;;
20480;SDS011;10399;50.754;3.366;2024-01-25T00:39:12;61.60;;;9.68;;
20480;SDS011;10399;50.754;3.366;2024-01-25T00:42:12;62.75;;;9.38;;
20480;SDS011;10399;50.754;3.366;2024-01-25T00:44:58;63.83;;;8.93;;
20480;SDS011;10399;50.754;3.366;2024-01-25T00:47:28;57.90;;;8.50;;
20480;SDS011;10399;50.754;3.366;2024-01-25T00:50:10;63.58;;;8.90;;
20480;SDS011;10399;50.754;3.366;2024-01-25T00:53:11;57.45;;;7.45;;
20480;SDS011;10399;50.754;3.366;2024-01-25T00:55:53;59.10;;;8.95;;
20480;SDS011;10399;50.754;3.366;2024-01-25T00:58:24;57.75;;;8.07;;
20480;SDS011;10399;50.754;3.366;2024-01-25T01:00:54;56.85;;;9.02;;
20480;SDS011;10399;50.754;3.366;2024-01-25T01:03:24;59.60;;;9.13;;
20480;SDS011;10399;50.754;3.366;2024-01-25T01:06:00;55.95;;;7.88;;
20480;SDS011;10399;50.754;3.366;2024-01-25T01:08:37;52.78;;;7.80;;
20480;SDS011;10399;50.754;3.366;2024-01-25T01:11:06;57.63;;;8.27;;
20480;SDS011;10399;50.754;3.366;2024-01-25T01:13:33;56.63;;;8.25;;
20480;SDS011;10399;50.754;3.366;2024-01-25T01:16:09;59.92;;;10.63;;
20480;SDS011;10399;50.754;3.366;2024-01-25T01:18:39;51.92;;;8.35;;
20480;SDS011;10399;50.754;3.366;2024-01-25T01:21:12;57.25;;;7.97;;
20480;SDS011;10399;50.754;3.366;2024-01-25T01:23:47;61.03;;;9.00;;
20480;SDS011;10399;50.754;3.366;2024-01-25T01:26:30;64.43;;;8.95;;
20480;SDS011;10399;50.754;3.366;2024-01-25T01:29:06;53.90;;;8.63;;
20480;SDS011;10399;50.754;3.366;2024-01-25T01:31:33;55.40;;;8.13;;
20480;SDS011;10399;50.754;3.366;2024-01-25T01:34:24;55.22;;;8.90;;
20480;SDS011;10399;50.754;3.366;2024-01-25T01:37:00;58.25;;;9.40;;
20480;SDS011;10399;50.754;3.366;2024-01-25T01:39:37;56.33;;;8.48;;
20480;SDS011;10399;50.754;3.366;2024-01-25T01:42:13;51.45;;;8.07;;
20480;SDS011;10399;50.754;3.366;2024-01-25T01:44:50;46.83;;;8.40;;
20480;SDS011;10399;50.754;3.366;2024-01-25T01:47:20;49.85;;;7.75;;
20480;SDS011;10399;50.754;3.366;2024-01-25T01:49:50;55.60;;;7.50;;
20480;SDS011;10399;50.754;3.366;2024-01-25T01:52:20;46.10;;;7.53;;
20480;SDS011;10399;50.754;3.366;2024-01-25T01:54:56;53.83;;;7.97;;
20480;SDS011;10399;50.754;3.366;2024-01-25T01:57:27;36.65;;;6.78;;
20480;SDS011;10399;50.754;3.366;2024-01-25T01:59:57;54.47;;;9.05;;
20480;SDS011;10399;50.754;3.366;2024-01-25T02:02:33;59.20;;;9.10;;
20480;SDS011;10399;50.754;3.366;2024-01-25T02:05:00;51.38;;;7.82;;
20480;SDS011;10399;50.754;3.366;2024-01-25T02:07:45;50.85;;;7.68;;
20480;SDS011;10399;50.754;3.366;2024-01-25T02:10:13;53.88;;;7.85;;
20480;SDS011;10399;50.754;3.366;2024-01-25T02:12:43;46.35;;;7.57;;
20480;SDS011;10399;50.754;3.366;2024-01-25T02:15:19;50.40;;;7.03;;
20480;SDS011;10399;50.754;3.366;2024-01-25T02:17:49;42.30;;;7.25;;
20480;SDS011;10399;50.754;3.366;2024-01-25T02:20:17;48.28;;;7.88;;
20480;SDS011;10399;50.754;3.366;2024-01-25T02:22:50;46.85;;;7.25;;
20480;SDS011;10399;50.754;3.366;2024-01-25T02:25:26;60.47;;;8.20;;
20480;SDS011;10399;50.754;3.366;2024-01-25T02:27:56;45.58;;;7.30;;
20480;SDS011;10399;50.754;3.366;2024-01-25T02:30:23;36.70;;;5.60;;
20480;SDS011;10399;50.754;3.366;2024-01-25T02:32:56;50.50;;;7.45;;
20480;SDS011;10399;50.754;3.366;2024-01-25T02:35:33;51.85;;;8.23;;
20480;SDS011;10399;50.754;3.366;2024-01-25T02:38:02;58.28;;;8.95;;
20480;SDS011;10399;50.754;3.366;2024-01-25T02:40:32;43.83;;;7.32;;
20480;SDS011;10399;50.754;3.366;2024-01-25T02:43:22;40.17;;;7.05;;
20480;SDS011;10399;50.754;3.366;2024-01-25T02:45:59;53.35;;;8.57;;
20480;SDS011;10399;50.754;3.366;2024-01-25T02:48:41;54.30;;;8.18;;
20480;SDS011;10399;50.754;3.366;2024-01-25T02:51:16;41.13;;;7.57;;
20480;SDS011;10399;50.754;3.366;2024-01-25T02:53:53;50.30;;;8.20;;
20480;SDS011;10399;50.754;3.366;2024-01-25T02:56:19;43.25;;;7.40;;
20480;SDS011;10399;50.754;3.366;2024-01-25T02:59:17;46.47;;;6.70;;
20480;SDS011;10399;50.754;3.366;2024-01-25T03:01:53;36.42;;;6.07;;
20480;SDS011;10399;50.754;3.366;2024-01-25T03:04:24;42.63;;;7.28;;
20480;SDS011;10399;50.754;3.366;2024-01-25T03:07:00;47.38;;;8.85;;
20480;SDS011;10399;50.754;3.366;2024-01-25T03:09:30;38.63;;;7.60;;
20480;SDS011;10399;50.754;3.366;2024-01-25T03:11:57;38.47;;;6.78;;
20480;SDS011;10399;50.754;3.366;2024-01-25T03:14:38;43.42;;;7.25;;
20480;SDS011;10399;50.754;3.366;2024-01-25T03:17:07;44.72;;;7.25;;
20480;SDS011;10399;50.754;3.366;2024-01-25T03:19:34;45.05;;;7.13;;
20480;SDS011;10399;50.754;3.366;2024-01-25T03:22:05;46.85;;;7.35;;
20480;SDS011;10399;50.754;3.366;2024-01-25T03:24:37;51.83;;;7.55;;
20480;SDS011;10399;50.754;3.366;2024-01-25T03:27:06;46.50;;;7.07;;
20480;SDS011;10399;50.754;3.366;2024-01-25T03:29:48;53.10;;;8.60;;
20480;SDS011;10399;50.754;3.366;2024-01-25T03:32:24;40.95;;;7.63;;
20480;SDS011;10399;50.754;3.366;2024-01-25T03:35:06;54.70;;;7.47;;
20480;SDS011;10399;50.754;3.366;2024-01-25T03:37:36;50.60;;;7.93;;
20480;SDS011;10399;50.754;3.366;2024-01-25T03:40:12;40.03;;;6.40;;
20480;SDS011;10399;50.754;3.366;2024-01-25T03:42:54;52.45;;;8.07;;
20480;SDS011;10399;50.754;3.366;2024-01-25T03:45:46;46.10;;;7.90;;
20480;SDS011;10399;50.754;3.366;2024-01-25T03:48:22;39.90;;;7.18;;
20480;SDS011;10399;50.754;3.366;2024-01-25T03:51:03;47.03;;;8.05;;
20480;SDS011;10399;50.754;3.366;2024-01-25T03:53:39;42.38;;;7.15;;
20480;SDS011;10399;50.754;3.366;2024-01-25T03:56:14;42.53;;;8.07;;
20480;SDS011;10399;50.754;3.366;2024-01-25T03:58:56;47.63;;;7.53;;
20480;SDS011;10399;50.754;3.366;2024-01-25T04:04:26;33.75;;;6.03;;
20480;SDS011;10399;50.754;3.366;2024-01-25T04:07:25;38.15;;;6.75;;
20480;SDS011;10399;50.754;3.366;2024-01-25T04:09:55;39.53;;;6.57;;
20480;SDS011;10399;50.754;3.366;2024-01-25T04:12:22;37.97;;;6.28;;
20480;SDS011;10399;50.754;3.366;2024-01-25T04:14:58;42.13;;;7.43;;
20480;SDS011;10399;50.754;3.366;2024-01-25T04:17:45;45.00;;;7.82;;
20480;SDS011;10399;50.754;3.366;2024-01-25T04:20:20;42.45;;;7.63;;
20480;SDS011;10399;50.754;3.366;2024-01-25T04:22:48;56.67;;;9.75;;
20480;SDS011;10399;50.754;3.366;2024-01-25T04:25:18;57.42;;;10.05;;
20480;SDS011;10399;50.754;3.366;2024-01-25T04:27:48;56.63;;;10.43;;
20480;SDS011;10399;50.754;3.366;2024-01-25T04:30:24;52.13;;;10.45;;
20480;SDS011;10399;50.754;3.366;2024-01-25T04:32:51;57.08;;;10.68;;
20480;SDS011;10399;50.754;3.366;2024-01-25T04:35:20;63.17;;;11.85;;
20480;SDS011;10399;50.754;3.366;2024-01-25T04:37:50;56.33;;;12.30;;
20480;SDS011;10399;50.754;3.366;2024-01-25T04:40:41;65.90;;;9.70;;
20480;SDS011;10399;50.754;3.366;2024-01-25T04:43:17;49.08;;;9.07;;
20480;SDS011;10399;50.754;3.366;2024-01-25T04:45:44;54.30;;;9.02;;
20480;SDS011;10399;50.754;3.366;2024-01-25T04:48:26;46.30;;;9.15;;
20480;SDS011;10399;50.754;3.366;2024-01-25T04:51:06;48.03;;;7.88;;
20480;SDS011;10399;50.754;3.366;2024-01-25T04:53:41;54.65;;;7.85;;
20480;SDS011;10399;50.754;3.366;2024-01-25T04:56:23;53.22;;;8.88;;
20480;SDS011;10399;50.754;3.366;2024-01-25T04:58:50;53.22;;;9.02;;
20480;SDS011;10399;50.754;3.366;2024-01-25T05:01:26;97.82;;;8.15;;
20480;SDS011;10399;50.754;3.366;2024-01-25T05:04:03;133.05;;;7.82;;
20480;SDS011;10399;50.754;3.366;2024-01-25T05:06:30;38.17;;;7.25;;
20480;SDS011;10399;50.754;3.366;2024-01-25T05:09:00;44.72;;;7.70;;
20480;SDS011;10399;50.754;3.366;2024-01-25T05:11:27;29.52;;;6.47;;
20480;SDS011;10399;50.754;3.366;2024-01-25T05:13:55;29.73;;;5.57;;
20480;SDS011;10399;50.754;3.366;2024-01-25T05:16:23;34.05;;;6.78;;
20480;SDS011;10399;50.754;3.366;2024-01-25T05:18:50;97.85;;;7.35;;
20480;SDS011;10399;50.754;3.366;2024-01-25T05:21:17;48.97;;;6.50;;
20480;SDS011;10399;50.754;3.366;2024-01-25T05:23:44;44.13;;;6.25;;
20480;SDS011;10399;50.754;3.366;2024-01-25T05:26:11;42.92;;;6.45;;
20480;SDS011;10399;50.754;3.366;2024-01-25T05:28:38;34.28;;;6.70;;
20480;SDS011;10399;50.754;3.366;2024-01-25T05:31:05;47.55;;;13.32;;
20480;SDS011;10399;50.754;3.366;2024-01-25T05:33:41;138.43;;;23.83;;
20480;SDS011;10399;50.754;3.366;2024-01-25T05:36:09;75.50;;;12.50;;
20480;SDS011;10399;50.754;3.366;2024-01-25T05:38:37;112.35;;;7.78;;
20480;SDS011;10399;50.754;3.366;2024-01-25T05:41:04;75.20;;;11.82;;
20480;SDS011;10399;50.754;3.366;2024-01-25T05:43:32;104.10;;;14.60;;
20480;SDS011;10399;50.754;3.366;2024-01-25T05:45:59;89.63;;;9.38;;
20480;SDS011;10399;50.754;3.366;2024-01-25T05:48:30;79.35;;;9.88;;
20480;SDS011;10399;50.754;3.366;2024-01-25T05:50:57;99.25;;;8.60;;
20480;SDS011;10399;50.754;3.366;2024-01-25T05:53:24;58.03;;;7.63;;
20480;SDS011;10399;50.754;3.366;2024-01-25T05:55:52;79.47;;;8.70;;
20480;SDS011;10399;50.754;3.366;2024-01-25T05:58:19;93.05;;;8.45;;
20480;SDS011;10399;50.754;3.366;2024-01-25T06:00:46;148.80;;;9.35;;
20480;SDS011;10399;50.754;3.366;2024-01-25T06:03:13;92.53;;;7.93;;
20480;SDS011;10399;50.754;3.366;2024-01-25T06:05:40;101.05;;;8.55;;
20480;SDS011;10399;50.754;3.366;2024-01-25T06:08:08;44.15;;;7.65;;
20480;SDS011;10399;50.754;3.366;2024-01-25T06:10:35;50.97;;;8.50;;
20480;SDS011;10399;50.754;3.366;2024-01-25T06:13:02;77.47;;;8.18;;
20480;SDS011;10399;50.754;3.366;2024-01-25T06:15:30;51.80;;;8.80;;
20480;SDS011;10399;50.754;3.366;2024-01-25T06:17:58;86.28;;;8.85;;
20480;SDS011;10399;50.754;3.366;2024-01-25T06:20:25;86.65;;;9.10;;
20480;SDS011;10399;50.754;3.366;2024-01-25T06:23:01;166.27;;;11.00;;
20480;SDS011;10399;50.754;3.366;2024-01-25T06:25:32;114.45;;;10.10;;
20480;SDS011;10399;50.754;3.366;2024-01-25T06:28:02;75.00;;;10.52;;
20480;SDS011;10399;50.754;3.366;2024-01-25T06:30:30;50.33;;;9.13;;
20480;SDS011;10399;50.754;3.366;2024-01-25T06:33:00;90.30;;;12.27;;
20480;SDS011;10399;50.754;3.366;2024-01-25T06:35:30;137.90;;;11.80;;
20480;SDS011;10399;50.754;3.366;2024-01-25T06:38:01;74.53;;;14.15;;
20480;SDS011;10399;50.754;3.366;2024-01-25T06:40:37;72.13;;;10.55;;
20480;SDS011;10399;50.754;3.366;2024-01-25T06:43:13;97.90;;;10.02;;
20480;SDS011;10399;50.754;3.366;2024-01-25T06:45:50;51.83;;;9.65;;
20480;SDS011;10399;50.754;3.366;2024-01-25T06:48:26;109.55;;;12.38;;
20480;SDS011;10399;50.754;3.366;2024-01-25T06:51:07;92.15;;;12.48;;
20480;SDS011;10399;50.754;3.366;2024-01-25T06:54:05;69.82;;;9.32;;
20480;SDS011;10399;50.754;3.366;2024-01-25T06:56:32;134.30;;;12.05;;
20480;SDS011;10399;50.754;3.366;2024-01-25T06:59:03;93.82;;;11.20;;
20480;SDS011;10399;50.754;3.366;2024-01-25T07:01:33;55.58;;;11.80;;
20480;SDS011;10399;50.754;3.366;2024-01-25T07:04:09;59.58;;;10.77;;
20480;SDS011;10399;50.754;3.366;2024-01-25T07:06:36;93.25;;;11.45;;
20480;SDS011;10399;50.754;3.366;2024-01-25T07:09:13;56.38;;;11.57;;
20480;SDS011;10399;50.754;3.366;2024-01-25T07:11:49;69.05;;;12.95;;
20480;SDS011;10399;50.754;3.366;2024-01-25T07:14:17;85.60;;;11.07;;
20480;SDS011;10399;50.754;3.366;2024-01-25T07:16:44;71.43;;;11.43;;
20480;SDS011;10399;50.754;3.366;2024-01-25T07:19:20;141.25;;;11.82;;
20480;SDS011;10399;50.754;3.366;2024-01-25T07:21:47;129.55;;;11.15;;
20480;SDS011;10399;50.754;3.366;2024-01-25T07:24:23;46.90;;;10.82;;
20480;SDS011;10399;50.754;3.366;2024-01-25T07:26:50;56.50;;;11.52;;
20480;SDS011;10399;50.754;3.366;2024-01-25T07:29:21;41.33;;;11.00;;
20480;SDS011;10399;50.754;3.366;2024-01-25T07:31:48;48.67;;;11.90;;
20480;SDS011;10399;50.754;3.366;2024-01-25T07:34:15;85.18;;;12.10;;
20480;SDS011;10399;50.754;3.366;2024-01-25T07:36:57;125.45;;;12.82;;
20480;SDS011;10399;50.754;3.366;2024-01-25T07:39:39;74.22;;;11.77;;
20480;SDS011;10399;50.754;3.366;2024-01-25T07:42:16;44.20;;;11.15;;
20480;SDS011;10399;50.754;3.366;2024-01-25T07:44:53;92.60;;;10.48;;
20480;SDS011;10399;50.754;3.366;2024-01-25T07:47:29;51.83;;;11.52;;
20480;SDS011;10399;50.754;3.366;2024-01-25T07:49:56;49.72;;;11.50;;
20480;SDS011;10399;50.754;3.366;2024-01-25T07:52:32;42.42;;;11.52;;
20480;SDS011;10399;50.754;3.366;2024-01-25T07:54:59;43.42;;;10.88;;
20480;SDS011;10399;50.754;3.366;2024-01-25T07:57:35;30.17;;;10.80;;
20480;SDS011;10399;50.754;3.366;2024-01-25T08:00:12;30.98;;;11.90;;
20480;SDS011;10399;50.754;3.366;2024-01-25T08:02:39;29.20;;;11.93;;
20480;SDS011;10399;50.754;3.366;2024-01-25T08:05:10;25.55;;;9.75;;
20480;SDS011;10399;50.754;3.366;2024-01-25T08:07:47;26.45;;;10.38;;
20480;SDS011;10399;50.754;3.366;2024-01-25T08:10:15;27.83;;;11.20;;
20480;SDS011;10399;50.754;3.366;2024-01-25T08:12:52;80.32;;;11.65;;
20480;SDS011;10399;50.754;3.366;2024-01-25T08:15:35;46.58;;;11.57;;
20480;SDS011;10399;50.754;3.366;2024-01-25T08:18:11;45.47;;;13.15;;
20480;SDS011;10399;50.754;3.366;2024-01-25T08:20:38;72.05;;;13.27;;
20480;SDS011;10399;50.754;3.366;2024-01-25T08:23:15;48.47;;;12.80;;
20480;SDS011;10399;50.754;3.366;2024-01-25T08:25:42;71.97;;;17.88;;
20480;SDS011;10399;50.754;3.366;2024-01-25T08:28:24;41.75;;;14.13;;
20480;SDS011;10399;50.754;3.366;2024-01-25T08:30:52;57.30;;;15.93;;
20480;SDS011;10399;50.754;3.366;2024-01-25T08:33:28;40.13;;;14.05;;
20480;SDS011;10399;50.754;3.366;2024-01-25T08:35:55;38.28;;;15.15;;
20480;SDS011;10399;50.754;3.366;2024-01-25T08:38:23;45.03;;;15.10;;
20480;SDS011;10399;50.754;3.366;2024-01-25T08:40:59;33.67;;;14.43;;
20480;SDS011;10399;50.754;3.366;2024-01-25T08:43:26;47.55;;;16.25;;
20480;SDS011;10399;50.754;3.366;2024-01-25T08:45:54;45.95;;;15.45;;
20480;SDS011;10399;50.754;3.366;2024-01-25T08:48:24;34.55;;;14.15;;
20480;SDS011;10399;50.754;3.366;2024-01-25T08:50:52;38.50;;;15.63;;
20480;SDS011;10399;50.754;3.366;2024-01-25T08:53:27;35.20;;;14.00;;
20480;SDS011;10399;50.754;3.366;2024-01-25T08:56:02;43.25;;;15.05;;
20480;SDS011;10399;50.754;3.366;2024-01-25T08:58:33;47.53;;;14.60;;
20480;SDS011;10399;50.754;3.366;2024-01-25T09:01:00;37.88;;;14.48;;
20480;SDS011;10399;50.754;3.366;2024-01-25T09:03:30;41.45;;;13.02;;
20480;SDS011;10399;50.754;3.366;2024-01-25T09:06:03;52.47;;;16.20;;
20480;SDS011;10399;50.754;3.366;2024-01-25T09:08:35;47.90;;;13.63;;
20480;SDS011;10399;50.754;3.366;2024-01-25T09:11:02;40.85;;;11.32;;
20480;SDS011;10399;50.754;3.366;2024-01-25T09:13:37;48.38;;;11.25;;
20480;SDS011;10399;50.754;3.366;2024-01-25T09:16:15;41.00;;;12.70;;
20480;SDS011;10399;50.754;3.366;2024-01-25T09:18:42;42.97;;;12.30;;
20480;SDS011;10399;50.754;3.366;2024-01-25T09:21:12;39.40;;;11.40;;
20480;SDS011;10399;50.754;3.366;2024-01-25T09:23:41;39.45;;;9.90;;
20480;SDS011;10399;50.754;3.366;2024-01-25T09:26:09;47.40;;;10.20;;
20480;SDS011;10399;50.754;3.366;2024-01-25T09:28:38;41.90;;;10.00;;
20480;SDS011;10399;50.754;3.366;2024-01-25T09:31:09;42.70;;;11.50;;
20480;SDS011;10399;50.754;3.366;2024-01-25T09:33:36;55.50;;;10.98;;
20480;SDS011;10399;50.754;3.366;2024-01-25T09:36:07;50.30;;;10.25;;
20480;SDS011;10399;50.754;3.366;2024-01-25T09:38:37;42.33;;;11.15;;
20480;SDS011;10399;50.754;3.366;2024-01-25T09:41:08;53.97;;;10.25;;
20480;SDS011;10399;50.754;3.366;2024-01-25T09:43:50;53.50;;;10.45;;
20480;SDS011;10399;50.754;3.366;2024-01-25T09:46:17;49.70;;;10.45;;
20480;SDS011;10399;50.754;3.366;2024-01-25T09:48:54;53.33;;;10.55;;
20480;SDS011;10399;50.754;3.366;2024-01-25T09:51:32;53.42;;;11.13;;
20480;SDS011;10399;50.754;3.366;2024-01-25T09:54:25;73.00;;;13.07;;
20480;SDS011;10399;50.754;3.366;2024-01-25T09:56:54;62.80;;;11.95;;
20480;SDS011;10399;50.754;3.366;2024-01-25T09:59:22;71.93;;;12.05;;
20480;SDS011;10399;50.754;3.366;2024-01-25T10:01:49;51.35;;;11.25;;
20480;SDS011;10399;50.754;3.366;2024-01-25T10:04:16;59.33;;;11.55;;
20480;SDS011;10399;50.754;3.366;2024-01-25T10:06:48;49.15;;;10.63;;
20480;SDS011;10399;50.754;3.366;2024-01-25T10:09:15;63.28;;;10.82;;
20480;SDS011;10399;50.754;3.366;2024-01-25T10:11:43;51.55;;;11.18;;
20480;SDS011;10399;50.754;3.366;2024-01-25T10:14:19;49.92;;;11.02;;
20480;SDS011;10399;50.754;3.366;2024-01-25T10:16:46;55.00;;;11.55;;
20480;SDS011;10399;50.754;3.366;2024-01-25T10:19:14;48.53;;;10.68;;
20480;SDS011;10399;50.754;3.366;2024-01-25T10:21:42;60.40;;;13.00;;
20480;SDS011;10399;50.754;3.366;2024-01-25T10:24:10;55.63;;;11.80;;
20480;SDS011;10399;50.754;3.366;2024-01-25T10:26:37;52.33;;;11.57;;
20480;SDS011;10399;50.754;3.366;2024-01-25T10:29:04;54.17;;;11.07;;
20480;SDS011;10399;50.754;3.366;2024-01-25T10:31:32;43.85;;;12.23;;
20480;SDS011;10399;50.754;3.366;2024-01-25T10:34:05;53.42;;;11.65;;
20480;SDS011;10399;50.754;3.366;2024-01-25T10:36:33;42.90;;;11.50;;
20480;SDS011;10399;50.754;3.366;2024-01-25T10:39:02;48.83;;;10.48;;
20480;SDS011;10399;50.754;3.366;2024-01-25T10:41:35;45.40;;;11.43;;
20480;SDS011;10399;50.754;3.366;2024-01-25T10:44:04;42.47;;;9.52;;
20480;SDS011;10399;50.754;3.366;2024-01-25T10:46:33;43.25;;;9.48;;
20480;SDS011;10399;50.754;3.366;2024-01-25T10:49:00;40.53;;;9.93;;
20480;SDS011;10399;50.754;3.366;2024-01-25T10:51:28;35.40;;;8.73;;
20480;SDS011;10399;50.754;3.366;2024-01-25T10:53:57;42.33;;;8.60;;
20480;SDS011;10399;50.754;3.366;2024-01-25T10:56:25;36.00;;;7.88;;
20480;SDS011;10399;50.754;3.366;2024-01-25T10:58:52;35.88;;;8.77;;
20480;SDS011;10399;50.754;3.366;2024-01-25T11:01:19;37.22;;;8.75;;
20480;SDS011;10399;50.754;3.366;2024-01-25T11:03:47;36.92;;;8.05;;
20480;SDS011;10399;50.754;3.366;2024-01-25T11:06:14;32.47;;;8.38;;
20480;SDS011;10399;50.754;3.366;2024-01-25T11:08:42;32.13;;;8.55;;
20480;SDS011;10399;50.754;3.366;2024-01-25T11:11:10;30.05;;;8.98;;
20480;SDS011;10399;50.754;3.366;2024-01-25T11:13:39;31.48;;;8.73;;
20480;SDS011;10399;50.754;3.366;2024-01-25T11:18:51;22.50;;;7.82;;
20480;SDS011;10399;50.754;3.366;2024-01-25T11:24:14;25.23;;;7.85;;
20480;SDS011;10399;50.754;3.366;2024-01-25T11:26:48;19.38;;;7.13;;
20480;SDS011;10399;50.754;3.366;2024-01-25T11:29:16;19.05;;;7.10;;
20480;SDS011;10399;50.754;3.366;2024-01-25T11:31:45;13.80;;;6.13;;
20480;SDS011;10399;50.754;3.366;2024-01-25T11:34:13;15.32;;;6.25;;
20480;SDS011;10399;50.754;3.366;2024-01-25T11:36:42;17.92;;;6.60;;
20480;SDS011;10399;50.754;3.366;2024-01-25T11:39:09;16.90;;;6.68;;
20480;SDS011;10399;50.754;3.366;2024-01-25T11:41:42;20.95;;;7.28;;
20480;SDS011;10399;50.754;3.366;2024-01-25T11:44:13;14.82;;;6.60;;
20480;SDS011;10399;50.754;3.366;2024-01-25T11:46:40;18.35;;;6.10;;
20480;SDS011;10399;50.754;3.366;2024-01-25T11:49:08;14.98;;;7.20;;
20480;SDS011;10399;50.754;3.366;2024-01-25T11:51:35;14.18;;;6.80;;
20480;SDS011;10399;50.754;3.366;2024-01-25T11:54:02;16.55;;;6.70;;
20480;SDS011;10399;50.754;3.366;2024-01-25T11:56:33;16.20;;;7.10;;
20480;SDS011;10399;50.754;3.366;2024-01-25T11:59:08;20.65;;;7.50;;
20480;SDS011;10399;50.754;3.366;2024-01-25T12:01:37;14.73;;;6.63;;
20480;SDS011;10399;50.754;3.366;2024-01-25T12:04:05;16.58;;;7.47;;
20480;SDS011;10399;50.754;3.366;2024-01-25T12:06:34;18.33;;;7.40;;
20480;SDS011;10399;50.754;3.366;2024-01-25T12:09:11;25.23;;;7.97;;
20480;SDS011;10399;50.754;3.366;2024-01-25T12:11:40;21.25;;;8.20;;
20480;SDS011;10399;50.754;3.366;2024-01-25T12:14:09;21.38;;;8.30;;
20480;SDS011;10399;50.754;3.366;2024-01-25T12:16:36;19.90;;;8.27;;
20480;SDS011;10399;50.754;3.366;2024-01-25T12:19:05;17.13;;;8.15;;
20480;SDS011;10399;50.754;3.366;2024-01-25T12:21:33;22.45;;;8.70;;
20480;SDS011;10399;50.754;3.366;2024-01-25T12:24:01;23.75;;;10.02;;
20480;SDS011;10399;50.754;3.366;2024-01-25T12:26:33;24.25;;;9.77;;
20480;SDS011;10399;50.754;3.366;2024-01-25T12:29:01;24.65;;;9.88;;
20480;SDS011;10399;50.754;3.366;2024-01-25T12:31:29;15.85;;;9.30;;
20480;SDS011;10399;50.754;3.366;2024-01-25T12:33:57;25.45;;;10.35;;
20480;SDS011;10399;50.754;3.366;2024-01-25T12:36:26;25.85;;;10.52;;
20480;SDS011;10399;50.754;3.366;2024-01-25T12:38:53;32.38;;;10.88;;
20480;SDS011;10399;50.754;3.366;2024-01-25T12:41:21;31.75;;;11.95;;
20480;SDS011;10399;50.754;3.366;2024-01-25T12:43:49;30.98;;;11.65;;
20480;SDS011;10399;50.754;3.366;2024-01-25T12:46:16;27.55;;;12.15;;
20480;SDS011;10399;50.754;3.366;2024-01-25T12:48:53;23.23;;;11.60;;
20480;SDS011;10399;50.754;3.366;2024-01-25T12:51:24;32.90;;;13.50;;
20480;SDS011;10399;50.754;3.366;2024-01-25T12:53:52;27.27;;;13.10;;
20480;SDS011;10399;50.754;3.366;2024-01-25T12:56:19;28.20;;;12.18;;
20480;SDS011;10399;50.754;3.366;2024-01-25T12:58:47;28.90;;;13.40;;
20480;SDS011;10399;50.754;3.366;2024-01-25T13:01:14;28.38;;;12.52;;
20480;SDS011;10399;50.754;3.366;2024-01-25T13:03:42;24.70;;;11.70;;
20480;SDS011;10399;50.754;3.366;2024-01-25T13:06:13;30.45;;;12.57;;
20480;SDS011;10399;50.754;3.366;2024-01-25T13:08:42;28.70;;;12.75;;
20480;SDS011;10399;50.754;3.366;2024-01-25T13:11:09;27.30;;;12.38;;
20480;SDS011;10399;50.754;3.366;2024-01-25T13:13:37;33.45;;;13.27;;
20480;SDS011;10399;50.754;3.366;2024-01-25T13:16:04;27.52;;;11.85;;
20480;SDS011;10399;50.754;3.366;2024-01-25T13:18:32;30.60;;;14.23;;
20480;SDS011;10399;50.754;3.366;2024-01-25T13:21:02;33.17;;;14.15;;
20480;SDS011;10399;50.754;3.366;2024-01-25T13:23:29;38.72;;;15.27;;
20480;SDS011;10399;50.754;3.366;2024-01-25T13:25:57;37.70;;;15.25;;
20480;SDS011;10399;50.754;3.366;2024-01-25T13:28:24;30.52;;;15.85;;
20480;SDS011;10399;50.754;3.366;2024-01-25T13:30:51;46.22;;;16.00;;
20480;SDS011;10399;50.754;3.366;2024-01-25T13:33:20;49.05;;;17.35;;
20480;SDS011;10399;50.754;3.366;2024-01-25T13:35:48;55.33;;;18.92;;
20480;SDS011;10399;50.754;3.366;2024-01-25T13:38:15;49.72;;;21.75;;
20480;SDS011;10399;50.754;3.366;2024-01-25T13:40:42;47.70;;;20.15;;
20480;SDS011;10399;50.754;3.366;2024-01-25T13:43:10;51.65;;;21.90;;
20480;SDS011;10399;50.754;3.366;2024-01-25T13:45:38;47.97;;;17.85;;
20480;SDS011;10399;50.754;3.366;2024-01-25T13:48:05;39.42;;;15.93;;
20480;SDS011;10399;50.754;3.366;2024-01-25T13:50:32;59.47;;;21.92;;
20480;SDS011;10399;50.754;3.366;2024-01-25T13:52:59;39.63;;;17.58;;
20480;SDS011;10399;50.754;3.366;2024-01-25T13:55:26;38.03;;;15.63;;
20480;SDS011;10399;50.754;3.366;2024-01-25T13:57:53;42.88;;;18.45;;
20480;SDS011;10399;50.754;3.366;2024-01-25T14:00:20;45.13;;;17.00;;
20480;SDS011;10399;50.754;3.366;2024-01-25T14:02:47;36.10;;;16.60;;
20480;SDS011;10399;50.754;3.366;2024-01-25T14:05:14;36.17;;;15.63;;
20480;SDS011;10399;50.754;3.366;2024-01-25T14:07:41;38.63;;;15.23;;
20480;SDS011;10399;50.754;3.366;2024-01-25T14:10:09;36.20;;;15.70;;
20480;SDS011;10399;50.754;3.366;2024-01-25T14:12:36;46.38;;;15.52;;
20480;SDS011;10399;50.754;3.366;2024-01-25T14:15:04;42.50;;;16.38;;
20480;SDS011;10399;50.754;3.366;2024-01-25T14:17:31;41.95;;;15.77;;
20480;SDS011;10399;50.754;3.366;2024-01-25T14:19:58;41.95;;;15.48;;
20480;SDS011;10399;50.754;3.366;2024-01-25T14:22:28;40.75;;;14.70;;
20480;SDS011;10399;50.754;3.366;2024-01-25T14:25:00;42.35;;;15.63;;
20480;SDS011;10399;50.754;3.366;2024-01-25T14:27:27;41.17;;;16.08;;
20480;SDS011;10399;50.754;3.366;2024-01-25T14:29:55;34.55;;;15.98;;
20480;SDS011;10399;50.754;3.366;2024-01-25T14:32:22;38.60;;;15.82;;
20480;SDS011;10399;50.754;3.366;2024-01-25T14:34:49;38.70;;;15.77;;
20480;SDS011;10399;50.754;3.366;2024-01-25T14:37:17;44.92;;;16.80;;
20480;SDS011;10399;50.754;3.366;2024-01-25T14:39:45;38.88;;;16.60;;
20480;SDS011;10399;50.754;3.366;2024-01-25T14:42:32;39.20;;;16.55;;
20480;SDS011;10399;50.754;3.366;2024-01-25T14:44:59;40.08;;;16.42;;
20480;SDS011;10399;50.754;3.366;2024-01-25T14:47:26;40.58;;;17.45;;
20480;SDS011;10399;50.754;3.366;2024-01-25T14:49:53;40.00;;;16.95;;
20480;SDS011;10399;50.754;3.366;2024-01-25T14:52:20;42.63;;;17.85;;
20480;SDS011;10399;50.754;3.366;2024-01-25T14:54:47;37.50;;;18.30;;
20480;SDS011;10399;50.754;3.366;2024-01-25T14:57:15;38.67;;;17.13;;
20480;SDS011;10399;50.754;3.366;2024-01-25T14:59:42;33.92;;;15.57;;
20480;SDS011;10399;50.754;3.366;2024-01-25T15:02:09;28.10;;;15.85;;